»·PEaware :: SWA1421 KSFO-KLAS

SWA1421 :: KSFO-KLAS

FLIGHT INFORMATION

Flight Status: Arrived
Operator:
Southwest Airlines
More flights by this operator :: More flights under this callsign
Pilot: Cody B. (17747)
Aircraft: BOEING 737-800
(B738)
More flights by this aircraft type
Origin: KSFO San Francisco Intl
United States
Destination: KLAS McCarran Intl
United States
More flights between these airports :: More routes between these airports
Route: +SSTIK4 NTELL Q162 ESSAA BTY SUNST4
File this flight plan on PilotEdge
Remarks: PBN / A1B1C1D1S1S2 DOF / 181002 REG / N8301J EET / KZLA0039 CODE / AB5ADE OPR / SWA PER / C RMK / TCAS SIMBRIEF
Altitude:
(Current/Filed)
37,000ft
Speed:
(Current/Filed)
459kts
Departed: 02-Oct-18 09:58 AM
Arrived: 02-Oct-18 11:15 AM
Distance/Time
Traveled:
359nm/1:17
Distance/Time
To Go:
Arrived

Flight Plot

Page will automatically refresh every two minutes.

Flight plan parsing failed; only flown route is shown


Map Options




Map Legend


Flown Route
Filed Route
Departure Airport
Arrival Airport
Navaid (VOR, NDB)
Fix

Horizontal Profiles

Position Reports

Time Latitude Longitude Heading Altitude Ground
Speed
02-Oct-18 09:30 37.612830 -122.383166 296 21ft 0kts
02-Oct-18 09:31 37.612830 -122.383166 296 21ft 0kts
02-Oct-18 09:32 37.612830 -122.383166 296 21ft 0kts
02-Oct-18 09:33 37.612830 -122.383166 296 21ft 0kts
02-Oct-18 09:34 37.612830 -122.383166 296 21ft 0kts
02-Oct-18 09:35 37.612830 -122.383166 296 21ft 0kts
02-Oct-18 09:36 37.612830 -122.383166 296 21ft 0kts
02-Oct-18 09:37 37.612830 -122.383166 296 21ft 0kts
02-Oct-18 09:38 37.612830 -122.383166 296 21ft 0kts
02-Oct-18 09:39 37.612830 -122.383166 296 21ft 0kts
02-Oct-18 09:40 37.612830 -122.383166 296 21ft 0kts
02-Oct-18 09:41 37.612830 -122.383166 296 21ft 0kts
02-Oct-18 09:42 37.612830 -122.383166 296 21ft 0kts
02-Oct-18 09:43 37.612830 -122.383166 296 21ft 0kts
02-Oct-18 09:44 37.612830 -122.383166 296 21ft 0kts
02-Oct-18 09:45 37.612830 -122.383166 296 21ft 0kts
02-Oct-18 09:46 37.612830 -122.383166 296 21ft 0kts
02-Oct-18 09:47 37.612830 -122.383166 296 21ft 0kts
02-Oct-18 09:48 37.612830 -122.383166 296 21ft 0kts
02-Oct-18 09:49 37.612830 -122.383166 296 21ft 0kts
02-Oct-18 09:50 37.612830 -122.383166 296 21ft 0kts
02-Oct-18 09:51 37.612734 -122.382591 260 21ft 2kts
02-Oct-18 09:52 37.613043 -122.382009 210 21ft 1kts
02-Oct-18 09:53 37.613111 -122.381965 206 21ft 0kts
02-Oct-18 09:54 37.613111 -122.381965 206 21ft 0kts
02-Oct-18 09:55 37.612951 -122.382065 206 21ft 2kts
02-Oct-18 09:56 37.611265 -122.383180 207 21ft 11kts
02-Oct-18 09:57 37.609088 -122.383455 122 21ft 2kts
02-Oct-18 09:58 37.609082 -122.383443 122 21ft 0kts
02-Oct-18 09:59 37.608853 -122.382457 68 21ft 7kts
02-Oct-18 10:00 37.617316 -122.376701 28 21ft 114kts
02-Oct-18 10:01 37.655213 -122.360424 338 1320ft 177kts
02-Oct-18 10:02 37.645743 -122.415966 202 2947ft 236kts
02-Oct-18 10:03 37.579883 -122.441398 194 5887ft 266kts
02-Oct-18 10:04 37.510787 -122.459338 171 9198ft 269kts
02-Oct-18 10:05 37.450915 -122.406662 129 11558ft 306kts
02-Oct-18 10:06 37.406559 -122.317125 110 14265ft 327kts
02-Oct-18 10:07 37.385827 -122.210174 108 16653ft 338kts
02-Oct-18 10:08 37.364007 -122.099445 108 17995ft 348kts
02-Oct-18 10:09 37.342324 -121.991110 108 19236ft 355kts
02-Oct-18 10:10 37.319847 -121.879596 109 20395ft 362kts
02-Oct-18 10:11 37.295908 -121.761255 109 21485ft 369kts
02-Oct-18 10:12 37.270798 -121.637792 109 22519ft 375kts
02-Oct-18 10:13 37.245105 -121.512141 109 23453ft 381kts
02-Oct-18 10:14 37.218551 -121.383127 109 24310ft 387kts
02-Oct-18 10:15 37.193530 -121.262149 110 25143ft 388kts
02-Oct-18 10:16 37.166030 -121.130081 111 26130ft 399kts
02-Oct-18 10:17 37.142648 -121.018265 112 26934ft 404kts
02-Oct-18 10:18 37.114040 -120.882296 113 28007ft 410kts
02-Oct-18 10:19 37.079865 -120.720968 114 29460ft 414kts
02-Oct-18 10:20 37.050180 -120.581682 114 30712ft 415kts
02-Oct-18 10:21 37.020415 -120.442820 115 31951ft 413kts
02-Oct-18 10:22 36.996088 -120.329950 117 32962ft 410kts
02-Oct-18 10:23 36.967075 -120.196130 118 34123ft 404kts
02-Oct-18 10:24 36.938195 -120.063786 118 35294ft 394kts
02-Oct-18 10:25 36.912038 -119.935644 108 36440ft 398kts
02-Oct-18 10:26 36.928973 -119.798593 77 36925ft 445kts
02-Oct-18 10:27 36.972860 -119.661465 76 36913ft 461kts
02-Oct-18 10:28 37.016997 -119.523337 75 36915ft 469kts
02-Oct-18 10:29 37.063141 -119.379428 75 36917ft 478kts
02-Oct-18 10:30 37.109227 -119.236404 75 36936ft 483kts
02-Oct-18 10:31 37.157661 -119.086503 74 37113ft 485kts
02-Oct-18 10:32 37.206380 -118.936206 74 37152ft 490kts
02-Oct-18 10:33 37.256170 -118.783136 74 37150ft 496kts
02-Oct-18 10:34 37.286797 -118.621021 95 37083ft 480kts
02-Oct-18 10:35 37.300131 -118.455455 91 37027ft 484kts
02-Oct-18 10:36 37.314168 -118.297673 92 37019ft 484kts
02-Oct-18 10:37 37.328532 -118.137806 92 37020ft 483kts
02-Oct-18 10:38 37.343753 -117.971181 91 37024ft 483kts
02-Oct-18 10:39 37.344363 -117.806726 108 37021ft 464kts
02-Oct-18 10:40 37.328408 -117.646586 105 37026ft 468kts
02-Oct-18 10:41 37.313926 -117.485548 105 37056ft 467kts
02-Oct-18 10:42 37.294613 -117.334441 119 37102ft 449kts
02-Oct-18 10:43 37.245948 -117.223367 137 37102ft 423kts
02-Oct-18 10:44 37.174421 -117.107218 137 37090ft 424kts
02-Oct-18 10:45 37.102808 -116.989869 137 37093ft 427kts
02-Oct-18 10:46 37.017306 -116.897892 159 37099ft 402kts
02-Oct-18 10:47 36.921926 -116.831480 160 37062ft 389kts
02-Oct-18 10:48 36.831250 -116.768719 160 36679ft 390kts
02-Oct-18 10:49 36.749256 -116.674314 141 35182ft 421kts
02-Oct-18 10:50 36.673097 -116.565715 140 32036ft 413kts
02-Oct-18 10:51 36.597684 -116.458612 138 28929ft 417kts
02-Oct-18 10:52 36.524637 -116.354918 138 26518ft 384kts
02-Oct-18 10:53 36.456352 -116.258849 138 24304ft 383kts
02-Oct-18 10:54 36.387147 -116.161396 137 22043ft 372kts
02-Oct-18 10:55 36.319828 -116.066880 136 19835ft 360kts
02-Oct-18 10:56 36.255088 -115.976268 135 17742ft 346kts
02-Oct-18 10:57 36.197512 -115.889108 119 16183ft 310kts
02-Oct-18 10:58 36.165489 -115.791380 115 15807ft 313kts
02-Oct-18 10:59 36.133566 -115.691993 115 14797ft 310kts
02-Oct-18 11:00 36.102067 -115.594396 114 13794ft 305kts
02-Oct-18 11:01 36.070889 -115.498071 114 12440ft 303kts
02-Oct-18 11:02 36.040565 -115.404604 113 11005ft 285kts
02-Oct-18 11:03 36.026116 -115.317717 96 10870ft 276kts
02-Oct-18 11:04 36.019931 -115.223344 96 9277ft 287kts
02-Oct-18 11:05 36.013741 -115.132942 96 8665ft 257kts
02-Oct-18 11:06 36.008405 -115.051254 96 7987ft 233kts
02-Oct-18 11:07 36.003735 -114.971960 97 7993ft 238kts
02-Oct-18 11:08 36.001477 -114.890625 94 7026ft 231kts
02-Oct-18 11:09 35.998113 -114.815191 95 6489ft 216kts
02-Oct-18 11:10 36.040758 -114.794844 300 5524ft 225kts
02-Oct-18 11:11 36.056598 -114.864951 280 4986ft 208kts
02-Oct-18 11:12 36.069256 -114.932510 284 4867ft 189kts
02-Oct-18 11:13 36.073621 -114.992149 265 4046ft 166kts
02-Oct-18 11:14 36.073929 -115.044142 272 3533ft 155kts
02-Oct-18 11:15 36.073805 -115.093407 271 2720ft 147kts
02-Oct-18 11:16 36.073675 -115.137623 268 2189ft 85kts
02-Oct-18 11:17 36.073986 -115.144167 291 2189ft 8kts
02-Oct-18 11:18 36.074744 -115.145946 298 2189ft 0kts
02-Oct-18 11:19 36.074744 -115.145947 298 2189ft 0kts
02-Oct-18 11:20 36.074955 -115.146325 316 2189ft 4kts
02-Oct-18 11:21 36.077175 -115.146547 0 2189ft 7kts
02-Oct-18 11:22 36.078197 -115.148029 6 2189ft 4kts
02-Oct-18 11:23 36.079677 -115.147737 335 2189ft 9kts
02-Oct-18 11:24 36.081673 -115.148848 348 2189ft 2kts
02-Oct-18 11:25 36.081927 -115.148493 63 2189ft 2kts
02-Oct-18 11:26 36.082020 -115.148280 60 2189ft 0kts
02-Oct-18 11:27 36.082020 -115.148280 60 2189ft 0kts
02-Oct-18 11:28 36.082020 -115.148280 60 2189ft 0kts

Navigation Log

Ident Type
Flight plan parsing failed, navigation log unavailable